Search for airport 
image banner adimage banner adimage banner ad
image banner ad

N13 - Bloomsburg Muni

Located in Bloomsburg, United States

ICAO - N13, IATA -

Data provided by Airmate  

General information

Coordinates: N40°59'52" W76°26'7"
Elevation is 481 feet MSL.
Magnetic variation is -12° East
View others Airports in Pennsylvania

Operational data

Special qualification required
Current time UTC:
Current local time:
Weather at : KHZL - Hazleton Rgnl ( 37 km )
METAR: KHZL 150615Z AUTO 31003KT 1 1/4SM BR OVC002 15/15 A2985 RMK AO2 LTG DSNT SE
View NOTAMs / SUP AIP / TFR affecting this airport [VIEW]
Communications frequencies: [VIEW]

Runways:

RWY identifierQFULength (ft)Width (ft)SurfaceLDA (ft)
0977°320060ASPH
27257°320060ASPH

Airport contact information

Address: Bloomsburg United States

Satellite view of N13